DLH075 EDDF-EDDL
Flight info
| Callsign | DLH075 |
|---|---|
| Flight time | 0h 44m |
| Altitude | 20000 |
| Route | MARUN3W MARUN Y152 ARPEG Z850 ADEMI T854 DOMUX DOMUX1A |
| Aircraft | A320/M-SDE3FGHIRWY/LB1 |
Departure
| Time | 2026-05-04 18:45 |
|---|---|
| Airport | Frankfurt Main Airport (EDDF) |
Arrival
| Time | 2026-05-04 19:29 |
|---|---|
| Airport | Düsseldorf Airport (EDDL) |
| Time | Latitude | Longitude | Altitude | Speed | Heading |
|---|---|---|---|---|---|
| 2026-05-04 18:16 | 50.03675 | 8.54060 | 354 ft | 0 kts | 159° |
| 2026-05-04 18:39 | 50.03674 | 8.54061 | 343 ft | 2 kts | 159° |
| 2026-05-04 18:39 | 50.03628 | 8.54084 | 344 ft | 9 kts | 174° |
| 2026-05-04 18:39 | 50.03585 | 8.54007 | 337 ft | 12 kts | 254° |
| 2026-05-04 18:40 | 50.03551 | 8.53865 | 340 ft | 16 kts | 248° |
| 2026-05-04 18:40 | 50.03507 | 8.53685 | 338 ft | 19 kts | 250° |
| 2026-05-04 18:40 | 50.03458 | 8.53476 | 335 ft | 22 kts | 249° |
| 2026-05-04 18:40 | 50.03402 | 8.53245 | 333 ft | 24 kts | 250° |
| 2026-05-04 18:41 | 50.03350 | 8.53027 | 334 ft | 21 kts | 249° |
| 2026-05-04 18:41 | 50.03299 | 8.52812 | 332 ft | 16 kts | 249° |
| 2026-05-04 18:41 | 50.03255 | 8.52652 | 331 ft | 16 kts | 237° |
| 2026-05-04 18:41 | 50.03181 | 8.52594 | 335 ft | 0 kts | 180° |
| 2026-05-04 18:44 | 50.03178 | 8.52594 | 335 ft | 4 kts | 180° |
| 2026-05-04 18:44 | 50.02700 | 8.52604 | 333 ft | 101 kts | 179° |
| 2026-05-04 18:44 | 50.01790 | 8.52610 | 335 ft | 158 kts | 180° |
| 2026-05-04 18:45 | 50.00569 | 8.52624 | 622 ft | 182 kts | 180° |
| 2026-05-04 18:45 | 49.99296 | 8.52648 | 1352 ft | 184 kts | 180° |
| 2026-05-04 18:45 | 49.97989 | 8.52484 | 1846 ft | 198 kts | 201° |
| 2026-05-04 18:45 | 49.96827 | 8.51175 | 2200 ft | 220 kts | 229° |
| 2026-05-04 18:46 | 49.95746 | 8.49398 | 2900 ft | 230 kts | 226° |
| 2026-05-04 18:46 | 49.94613 | 8.47638 | 3819 ft | 231 kts | 224° |
| 2026-05-04 18:46 | 49.93462 | 8.45885 | 4755 ft | 232 kts | 223° |
| 2026-05-04 18:46 | 49.92257 | 8.44072 | 5315 ft | 253 kts | 223° |
| 2026-05-04 18:47 | 49.90957 | 8.42131 | 6021 ft | 264 kts | 223° |
| 2026-05-04 18:47 | 49.89627 | 8.40149 | 6933 ft | 266 kts | 223° |
| 2026-05-04 18:47 | 49.88329 | 8.38085 | 7845 ft | 269 kts | 232° |
| 2026-05-04 18:47 | 49.87523 | 8.35457 | 8734 ft | 275 kts | 255° |
| 2026-05-04 18:48 | 49.87489 | 8.32470 | 9633 ft | 283 kts | 279° |
| 2026-05-04 18:48 | 49.88324 | 8.29684 | 10456 ft | 293 kts | 306° |
| 2026-05-04 18:48 | 49.89943 | 8.27701 | 11181 ft | 308 kts | 332° |
| 2026-05-04 18:48 | 49.92138 | 8.27054 | 11637 ft | 340 kts | 2° |
| 2026-05-04 18:49 | 49.94553 | 8.27608 | 12030 ft | 360 kts | 10° |
| 2026-05-04 18:49 | 49.97030 | 8.28473 | 12647 ft | 368 kts | 12° |
| 2026-05-04 18:49 | 49.99528 | 8.29472 | 13351 ft | 373 kts | 13° |
| 2026-05-04 18:49 | 50.02049 | 8.30509 | 14024 ft | 377 kts | 13° |
| 2026-05-04 18:50 | 50.04596 | 8.31536 | 14660 ft | 380 kts | 13° |
| 2026-05-04 18:50 | 50.07179 | 8.32536 | 15300 ft | 384 kts | 12° |
| 2026-05-04 18:50 | 50.09784 | 8.33504 | 15931 ft | 387 kts | 12° |
| 2026-05-04 18:50 | 50.12423 | 8.34460 | 16559 ft | 391 kts | 11° |
| 2026-05-04 18:51 | 50.15056 | 8.35404 | 17185 ft | 395 kts | 11° |
| 2026-05-04 18:51 | 50.17782 | 8.36377 | 17811 ft | 399 kts | 11° |
| 2026-05-04 18:51 | 50.20502 | 8.37353 | 18404 ft | 402 kts | 12° |
| 2026-05-04 18:51 | 50.23242 | 8.38347 | 18936 ft | 406 kts | 12° |
| 2026-05-04 18:52 | 50.25999 | 8.39358 | 19466 ft | 409 kts | 12° |
| 2026-05-04 18:52 | 50.28781 | 8.40398 | 19854 ft | 412 kts | 14° |
| 2026-05-04 18:52 | 50.31491 | 8.41796 | 19963 ft | 418 kts | 18° |
| 2026-05-04 18:52 | 50.34311 | 8.43338 | 20055 ft | 433 kts | 18° |
| 2026-05-04 18:53 | 50.37190 | 8.44910 | 20185 ft | 445 kts | 18° |
| 2026-05-04 18:53 | 50.40144 | 8.46523 | 20470 ft | 453 kts | 18° |
| 2026-05-04 18:53 | 50.43159 | 8.48168 | 20595 ft | 463 kts | 18° |
| 2026-05-04 18:53 | 50.45556 | 8.49479 | 20715 ft | 470 kts | 18° |
| 2026-05-04 18:54 | 50.48653 | 8.51157 | 21012 ft | 474 kts | 17° |
| 2026-05-04 18:54 | 50.51800 | 8.52754 | 21356 ft | 476 kts | 16° |
| 2026-05-04 18:54 | 50.54977 | 8.54273 | 21717 ft | 479 kts | 15° |
| 2026-05-04 18:54 | 50.58188 | 8.55757 | 21941 ft | 483 kts | 14° |
| 2026-05-04 18:55 | 50.61422 | 8.57243 | 21984 ft | 485 kts | 15° |
| 2026-05-04 18:55 | 50.67660 | 8.60176 | 21981 ft | 450 kts | 15° |
| 2026-05-04 18:55 | 50.70634 | 8.61610 | 21980 ft | 442 kts | 15° |
| 2026-05-04 18:56 | 50.73537 | 8.63021 | 21982 ft | 431 kts | 15° |
| 2026-05-04 18:56 | 50.76412 | 8.64166 | 21974 ft | 421 kts | 5° |
| 2026-05-04 18:56 | 50.79294 | 8.64264 | 21977 ft | 408 kts | 351° |
| 2026-05-04 18:56 | 50.82018 | 8.63317 | 21978 ft | 398 kts | 337° |
| 2026-05-04 18:57 | 50.84487 | 8.61442 | 21977 ft | 391 kts | 323° |
| 2026-05-04 18:57 | 50.86593 | 8.58769 | 21977 ft | 385 kts | 310° |
| 2026-05-04 18:57 | 50.88350 | 8.55589 | 21978 ft | 384 kts | 307° |
| 2026-05-04 18:57 | 50.90052 | 8.52403 | 21976 ft | 382 kts | 307° |
| 2026-05-04 18:58 | 50.91755 | 8.49218 | 21995 ft | 373 kts | 307° |
| 2026-05-04 18:58 | 50.93417 | 8.46115 | 21979 ft | 366 kts | 307° |
| 2026-05-04 18:58 | 50.95053 | 8.43063 | 21978 ft | 360 kts | 307° |
| 2026-05-04 18:58 | 50.96657 | 8.40061 | 21976 ft | 352 kts | 307° |
| 2026-05-04 18:59 | 50.98220 | 8.37130 | 21979 ft | 345 kts | 306° |
| 2026-05-04 18:59 | 50.99753 | 8.34247 | 21988 ft | 339 kts | 307° |
| 2026-05-04 18:59 | 51.01387 | 8.31571 | 21992 ft | 335 kts | 315° |
| 2026-05-04 18:59 | 51.03223 | 8.29317 | 21993 ft | 332 kts | 323° |
| 2026-05-04 19:00 | 51.05207 | 8.27474 | 21993 ft | 329 kts | 327° |
| 2026-05-04 19:00 | 51.07189 | 8.25729 | 21991 ft | 323 kts | 328° |
| 2026-05-04 19:00 | 51.09284 | 8.24532 | 21995 ft | 322 kts | 350° |
| 2026-05-04 19:00 | 51.11532 | 8.24561 | 21988 ft | 325 kts | 2° |
| 2026-05-04 19:01 | 51.13781 | 8.24939 | 21992 ft | 325 kts | 4° |
| 2026-05-04 19:01 | 51.16031 | 8.25353 | 21987 ft | 325 kts | 4° |
| 2026-05-04 19:01 | 51.18281 | 8.25773 | 21982 ft | 327 kts | 4° |
| 2026-05-04 19:01 | 51.20544 | 8.26196 | 21988 ft | 327 kts | 4° |
| 2026-05-04 19:02 | 51.22810 | 8.26620 | 21987 ft | 328 kts | 4° |
| 2026-05-04 19:02 | 51.25081 | 8.27045 | 21987 ft | 329 kts | 4° |
| 2026-05-04 19:02 | 51.27358 | 8.27471 | 21982 ft | 329 kts | 4° |
| 2026-05-04 19:02 | 51.29630 | 8.27896 | 21992 ft | 329 kts | 4° |
| 2026-05-04 19:03 | 51.31901 | 8.28320 | 21988 ft | 328 kts | 4° |
| 2026-05-04 19:03 | 51.34170 | 8.28744 | 21980 ft | 328 kts | 4° |
| 2026-05-04 19:03 | 51.36440 | 8.29168 | 21986 ft | 328 kts | 4° |
| 2026-05-04 19:03 | 51.38709 | 8.29594 | 21985 ft | 328 kts | 4° |
| 2026-05-04 19:04 | 51.40975 | 8.30019 | 21986 ft | 328 kts | 4° |
| 2026-05-04 19:04 | 51.43242 | 8.30444 | 21985 ft | 328 kts | 4° |
| 2026-05-04 19:04 | 51.45512 | 8.30870 | 21979 ft | 328 kts | 4° |
| 2026-05-04 19:04 | 51.47777 | 8.31294 | 21987 ft | 328 kts | 4° |
| 2026-05-04 19:05 | 51.50045 | 8.31720 | 21976 ft | 328 kts | 4° |
| 2026-05-04 19:05 | 51.52312 | 8.32146 | 21987 ft | 328 kts | 4° |
| 2026-05-04 19:05 | 51.54580 | 8.32563 | 21974 ft | 328 kts | 4° |
| 2026-05-04 19:05 | 51.56857 | 8.32976 | 21979 ft | 328 kts | 4° |
| 2026-05-04 19:06 | 51.59126 | 8.33388 | 21980 ft | 328 kts | 4° |
| 2026-05-04 19:06 | 51.61397 | 8.33800 | 21981 ft | 328 kts | 4° |
| 2026-05-04 19:06 | 51.63661 | 8.33849 | 21982 ft | 323 kts | 345° |
| 2026-05-04 19:06 | 51.65724 | 8.32606 | 21971 ft | 316 kts | 327° |
| 2026-05-04 19:07 | 51.67611 | 8.30797 | 21977 ft | 315 kts | 324° |
| 2026-05-04 19:07 | 51.69472 | 8.28924 | 21981 ft | 315 kts | 324° |
| 2026-05-04 19:07 | 51.70703 | 8.27678 | 21981 ft | 315 kts | 324° |
| 2026-05-04 19:07 | 51.73166 | 8.25181 | 21991 ft | 316 kts | 324° |
| 2026-05-04 19:08 | 51.74419 | 8.23900 | 21828 ft | 315 kts | 324° |
| 2026-05-04 19:08 | 51.76266 | 8.21999 | 21449 ft | 315 kts | 323° |
| 2026-05-04 19:08 | 51.78117 | 8.20095 | 21067 ft | 315 kts | 324° |
| 2026-05-04 19:08 | 51.80554 | 8.17557 | 20612 ft | 313 kts | 320° |
| 2026-05-04 19:09 | 51.81998 | 8.15050 | 20298 ft | 301 kts | 295° |
| 2026-05-04 19:09 | 51.82520 | 8.12964 | 20071 ft | 294 kts | 279° |
| 2026-05-04 19:09 | 51.82881 | 8.09723 | 19710 ft | 292 kts | 274° |
| 2026-05-04 19:09 | 51.83156 | 8.06469 | 19380 ft | 292 kts | 274° |
| 2026-05-04 19:10 | 51.83225 | 8.03231 | 19068 ft | 286 kts | 258° |
| 2026-05-04 19:10 | 51.82894 | 8.01196 | 18857 ft | 281 kts | 244° |
| 2026-05-04 19:10 | 51.81375 | 7.97874 | 18439 ft | 275 kts | 216° |
| 2026-05-04 19:10 | 51.79818 | 7.96075 | 18088 ft | 275 kts | 214° |
| 2026-05-04 19:11 | 51.78248 | 7.94307 | 17740 ft | 275 kts | 214° |
| 2026-05-04 19:11 | 51.76681 | 7.92543 | 17425 ft | 273 kts | 214° |
| 2026-05-04 19:11 | 51.75128 | 7.90791 | 17135 ft | 271 kts | 214° |
| 2026-05-04 19:11 | 51.73584 | 7.89050 | 16829 ft | 270 kts | 214° |
| 2026-05-04 19:12 | 51.72048 | 7.87316 | 16531 ft | 269 kts | 214° |
| 2026-05-04 19:12 | 51.68980 | 7.83878 | 15947 ft | 267 kts | 214° |
| 2026-05-04 19:12 | 51.67477 | 7.82189 | 15665 ft | 266 kts | 214° |
| 2026-05-04 19:13 | 51.65959 | 7.80478 | 15380 ft | 266 kts | 214° |
| 2026-05-04 19:13 | 51.64448 | 7.78773 | 15101 ft | 265 kts | 214° |
| 2026-05-04 19:13 | 51.62944 | 7.77074 | 14821 ft | 264 kts | 214° |
| 2026-05-04 19:13 | 51.61442 | 7.75380 | 14545 ft | 263 kts | 214° |
| 2026-05-04 19:14 | 51.59945 | 7.73698 | 14269 ft | 262 kts | 214° |
| 2026-05-04 19:14 | 51.58448 | 7.72018 | 14003 ft | 262 kts | 214° |
| 2026-05-04 19:14 | 51.56948 | 7.70338 | 13716 ft | 262 kts | 214° |
| 2026-05-04 19:14 | 51.55452 | 7.68666 | 13410 ft | 262 kts | 213° |
| 2026-05-04 19:15 | 51.53963 | 7.67002 | 13135 ft | 260 kts | 213° |
| 2026-05-04 19:15 | 51.52484 | 7.65348 | 12852 ft | 258 kts | 214° |
| 2026-05-04 19:15 | 51.51013 | 7.63706 | 12567 ft | 257 kts | 214° |
| 2026-05-04 19:15 | 51.49550 | 7.62074 | 12275 ft | 256 kts | 214° |
| 2026-05-04 19:16 | 51.48091 | 7.60453 | 11980 ft | 254 kts | 213° |
| 2026-05-04 19:16 | 51.46639 | 7.58839 | 11690 ft | 253 kts | 214° |
| 2026-05-04 19:16 | 51.45192 | 7.57229 | 11405 ft | 252 kts | 214° |
| 2026-05-04 19:16 | 51.43756 | 7.55630 | 11118 ft | 251 kts | 214° |
| 2026-05-04 19:17 | 51.42393 | 7.53882 | 10827 ft | 251 kts | 223° |
| 2026-05-04 19:17 | 51.41232 | 7.51808 | 10546 ft | 250 kts | 232° |
| 2026-05-04 19:17 | 51.40260 | 7.49499 | 10251 ft | 250 kts | 235° |
| 2026-05-04 19:17 | 51.39306 | 7.47184 | 9960 ft | 248 kts | 235° |
| 2026-05-04 19:18 | 51.38349 | 7.44884 | 9642 ft | 247 kts | 235° |
| 2026-05-04 19:18 | 51.37398 | 7.42605 | 9334 ft | 246 kts | 234° |
| 2026-05-04 19:18 | 51.36454 | 7.40340 | 9016 ft | 244 kts | 235° |
| 2026-05-04 19:18 | 51.35516 | 7.38088 | 8708 ft | 242 kts | 235° |
| 2026-05-04 19:19 | 51.34583 | 7.35854 | 8410 ft | 240 kts | 235° |
| 2026-05-04 19:19 | 51.33661 | 7.33650 | 8108 ft | 237 kts | 234° |
| 2026-05-04 19:19 | 51.32753 | 7.31474 | 7820 ft | 234 kts | 234° |
| 2026-05-04 19:19 | 51.31854 | 7.29320 | 7515 ft | 232 kts | 234° |
| 2026-05-04 19:20 | 51.30960 | 7.27184 | 7189 ft | 231 kts | 234° |
| 2026-05-04 19:20 | 51.30070 | 7.25062 | 7007 ft | 229 kts | 234° |
| 2026-05-04 19:20 | 51.29182 | 7.22945 | 6984 ft | 230 kts | 234° |
| 2026-05-04 19:20 | 51.28437 | 7.20679 | 6977 ft | 234 kts | 254° |
| 2026-05-04 19:21 | 51.28486 | 7.18076 | 6984 ft | 242 kts | 285° |
| 2026-05-04 19:21 | 51.29412 | 7.15799 | 7001 ft | 252 kts | 316° |
| 2026-05-04 19:21 | 51.30984 | 7.14528 | 6980 ft | 258 kts | 346° |
| 2026-05-04 19:21 | 51.32742 | 7.14117 | 6977 ft | 260 kts | 353° |
| 2026-05-04 19:22 | 51.34543 | 7.14327 | 6983 ft | 261 kts | 20° |
| 2026-05-04 19:22 | 51.36059 | 7.15867 | 6996 ft | 260 kts | 47° |
| 2026-05-04 19:22 | 51.37277 | 7.17994 | 6978 ft | 258 kts | 44° |
| 2026-05-04 19:22 | 51.38795 | 7.19401 | 6671 ft | 252 kts | 13° |
| 2026-05-04 19:23 | 51.40515 | 7.19446 | 6112 ft | 247 kts | 341° |
| 2026-05-04 19:23 | 51.41958 | 7.18103 | 5572 ft | 239 kts | 309° |
| 2026-05-04 19:23 | 51.42710 | 7.15831 | 5043 ft | 230 kts | 277° |
| 2026-05-04 19:23 | 51.42780 | 7.13281 | 4447 ft | 230 kts | 265° |
| 2026-05-04 19:24 | 51.42687 | 7.10723 | 3887 ft | 230 kts | 264° |
| 2026-05-04 19:24 | 51.42565 | 7.08156 | 3519 ft | 231 kts | 263° |
| 2026-05-04 19:24 | 51.42417 | 7.05593 | 3186 ft | 230 kts | 258° |
| 2026-05-04 19:24 | 51.41817 | 7.03267 | 2994 ft | 226 kts | 233° |
| 2026-05-04 19:25 | 51.40863 | 7.01243 | 3012 ft | 229 kts | 231° |
| 2026-05-04 19:25 | 51.39906 | 6.99210 | 3011 ft | 229 kts | 231° |
| 2026-05-04 19:25 | 51.38964 | 6.97211 | 2999 ft | 218 kts | 232° |
| 2026-05-04 19:25 | 51.38069 | 6.95314 | 2839 ft | 211 kts | 231° |
| 2026-05-04 19:26 | 51.37202 | 6.93482 | 2597 ft | 202 kts | 231° |
| 2026-05-04 19:26 | 51.36366 | 6.91715 | 2339 ft | 195 kts | 231° |
| 2026-05-04 19:26 | 51.35560 | 6.90011 | 2081 ft | 189 kts | 231° |
| 2026-05-04 19:26 | 51.34778 | 6.88361 | 1825 ft | 183 kts | 231° |
| 2026-05-04 19:27 | 51.34033 | 6.86789 | 1605 ft | 170 kts | 231° |
| 2026-05-04 19:27 | 51.33356 | 6.85359 | 1383 ft | 151 kts | 229° |
| 2026-05-04 19:27 | 51.32748 | 6.84078 | 1162 ft | 141 kts | 230° |
| 2026-05-04 19:27 | 51.32166 | 6.82854 | 987 ft | 138 kts | 230° |
| 2026-05-04 19:28 | 51.31587 | 6.81636 | 800 ft | 136 kts | 229° |
| 2026-05-04 19:28 | 51.31013 | 6.80419 | 622 ft | 134 kts | 232° |
| 2026-05-04 19:28 | 51.30448 | 6.79244 | 432 ft | 136 kts | 230° |
| 2026-05-04 19:28 | 51.29883 | 6.78044 | 217 ft | 133 kts | 230° |
| 2026-05-04 19:29 | 51.29341 | 6.76899 | 134 ft | 120 kts | 231° |
| 2026-05-04 19:29 | 51.28925 | 6.76029 | 127 ft | 69 kts | 232° |
| 2026-05-04 19:29 | 51.28693 | 6.75664 | 123 ft | 26 kts | 212° |
| 2026-05-04 19:29 | 51.28534 | 6.75720 | 121 ft | 19 kts | 138° |
| 2026-05-04 19:30 | 51.28452 | 6.75787 | 123 ft | 9 kts | 141° |
| 2026-05-04 19:30 | 51.28447 | 6.75793 | 123 ft | 0 kts | 143° |
| 2026-05-04 19:32 | 51.28438 | 6.75804 | 121 ft | 5 kts | 143° |
| 2026-05-04 19:32 | 51.28415 | 6.75832 | 122 ft | 3 kts | 143° |
| 2026-05-04 19:32 | 51.28405 | 6.75844 | 124 ft | 1 kts | 143° |
| 2026-05-04 19:32 | 51.28404 | 6.75845 | 124 ft | 0 kts | 143° |
| 2026-05-04 19:33 | 51.28403 | 6.75846 | 124 ft | 1 kts | 143° |
| 2026-05-04 19:34 | 51.28402 | 6.75847 | 124 ft | 0 kts | 143° |
| 2026-05-04 19:34 | 51.28400 | 6.75850 | 124 ft | 0 kts | 142° |
| 2026-05-04 19:38 | 51.28398 | 6.75852 | 124 ft | 3 kts | 143° |
| 2026-05-04 19:38 | 51.28356 | 6.75903 | 126 ft | 11 kts | 143° |
| 2026-05-04 19:38 | 51.28299 | 6.75971 | 126 ft | 10 kts | 143° |
| 2026-05-04 19:39 | 51.28235 | 6.76044 | 127 ft | 12 kts | 146° |
| 2026-05-04 19:39 | 51.28221 | 6.76058 | 125 ft | 1 kts | 147° |
| 2026-05-04 19:39 | 51.28206 | 6.76080 | 125 ft | 5 kts | 133° |
| 2026-05-04 19:39 | 51.28202 | 6.76162 | 127 ft | 11 kts | 70° |
| 2026-05-04 19:40 | 51.28266 | 6.76306 | 126 ft | 20 kts | 48° |
| 2026-05-04 19:40 | 51.28348 | 6.76506 | 123 ft | 24 kts | 50° |
| 2026-05-04 19:40 | 51.28392 | 6.76688 | 125 ft | 14 kts | 118° |
| 2026-05-04 19:40 | 51.28327 | 6.76782 | 125 ft | 12 kts | 141° |
| 2026-05-04 19:41 | 51.28264 | 6.76849 | 126 ft | 11 kts | 162° |
| 2026-05-04 19:41 | 51.28187 | 6.76842 | 129 ft | 11 kts | 188° |
| 2026-05-04 19:41 | 51.28109 | 6.76817 | 127 ft | 12 kts | 197° |
| 2026-05-04 19:41 | 51.28056 | 6.76748 | 124 ft | 6 kts | 289° |
| 2026-05-04 19:42 | 51.28058 | 6.76721 | 124 ft | 2 kts | 274° |
| 2026-05-04 19:42 | 51.28059 | 6.76708 | 126 ft | 0 kts | 275° |